Time;durP1;ratioP1;P1;durP2;ratioP2;P2;SDS_P1;SDS_P2;PMS_P1;PMS_P2;Temp;Humidity;BMP_temperature;BMP_pressure;BME280_temperature;BME280_humidity;BME280_pressure;Samples;Min_cycle;Max_cycle;Signal;HPM_P1;HPM_P2
2022/11/19 00:01:44;;;;;;;0.40;0.40;;;12.90;78.30;;;;;;5091905;28;20656;-67
2022/11/19 00:04:33;;;;;;;0.40;0.40;;;12.90;76.60;;;;;;5091889;28;20473;-67
2022/11/19 00:07:22;;;;;;;0.50;0.50;;;12.90;77.60;;;;;;5092113;28;20422;-65
2022/11/19 00:10:10;;;;;;;0.40;0.40;;;12.90;77.50;;;;;;5091692;28;20522;-66
2022/11/19 00:12:57;;;;;;;0.40;0.40;;;13.00;76.50;;;;;;5092298;28;20418;-66
2022/11/19 00:15:45;;;;;;;0.63;0.63;;;13.00;77.00;;;;;;5091971;28;20651;-66
2022/11/19 00:18:33;;;;;;;0.50;0.50;;;13.00;76.70;;;;;;5091331;28;21047;-65
2022/11/19 00:21:21;;;;;;;0.40;0.40;;;13.00;76.10;;;;;;5090877;28;20484;-66
2022/11/19 00:24:11;;;;;;;0.77;0.77;;;13.00;76.70;;;;;;5092197;28;20517;-68
2022/11/19 00:26:59;;;;;;;0.40;0.40;;;12.90;75.30;;;;;;5091893;28;20228;-67
2022/11/19 00:29:47;;;;;;;0.40;0.40;;;12.90;75.70;;;;;;5091435;28;20200;-66
2022/11/19 00:32:35;;;;;;;0.73;0.73;;;12.90;76.70;;;;;;5091432;28;20192;-65
2022/11/19 00:35:23;;;;;;;0.50;0.50;;;12.90;76.50;;;;;;5091664;28;20303;-66
2022/11/19 00:38:11;;;;;;;0.40;0.40;;;12.90;76.60;;;;;;5091802;28;20206;-65
2022/11/19 00:41:00;;;;;;;0.40;0.40;;;12.90;76.20;;;;;;5090765;28;20272;-65
2022/11/19 00:43:49;;;;;;;0.40;0.40;;;12.80;78.30;;;;;;5091072;28;20245;-66
2022/11/19 00:46:37;;;;;;;0.40;0.40;;;12.80;76.20;;;;;;5091858;28;20223;-66
2022/11/19 00:49:25;;;;;;;0.43;0.43;;;12.80;76.80;;;;;;5090848;28;20682;-65
2022/11/19 00:52:13;;;;;;;0.83;0.83;;;12.80;76.50;;;;;;5091027;28;20419;-65
2022/11/19 00:55:01;;;;;;;0.40;0.40;;;12.80;76.30;;;;;;5091021;28;20454;-66
2022/11/19 00:57:50;;;;;;;0.40;0.40;;;12.70;76.30;;;;;;5090977;28;20208;-65
2022/11/19 01:00:38;;;;;;;1.30;1.27;;;12.70;76.20;;;;;;5091180;28;20423;-66
2022/11/19 01:03:26;;;;;;;0.40;0.40;;;12.70;76.90;;;;;;5091722;28;20426;-65
2022/11/19 01:06:17;;;;;;;2.10;2.00;;;12.60;77.00;;;;;;5094560;28;20894;-65
2022/11/19 01:09:06;;;;;;;0.40;0.40;;;12.60;77.20;;;;;;5094604;28;20453;-65
2022/11/19 01:11:54;;;;;;;0.40;0.40;;;12.60;77.40;;;;;;5095201;28;20419;-66
2022/11/19 01:14:44;;;;;;;0.40;0.40;;;12.60;76.10;;;;;;5094909;28;20442;-65
2022/11/19 01:17:32;;;;;;;1.13;1.13;;;12.70;77.30;;;;;;5094835;28;20609;-66
2022/11/19 01:20:20;;;;;;;0.40;0.40;;;12.70;76.30;;;;;;5094166;28;20202;-66
2022/11/19 01:23:08;;;;;;;0.40;0.40;;;12.70;76.30;;;;;;5094540;28;20410;-67
2022/11/19 01:25:56;;;;;;;0.40;0.40;;;12.80;76.20;;;;;;5094812;28;20703;-66
2022/11/19 01:28:45;;;;;;;0.50;0.50;;;12.70;76.00;;;;;;5094243;28;20210;-66
2022/11/19 01:31:34;;;;;;;0.67;0.67;;;12.80;76.30;;;;;;5095173;28;20445;-66
2022/11/19 01:34:22;;;;;;;3.60;3.30;;;12.80;76.00;;;;;;5094005;28;20493;-67
2022/11/19 01:37:10;;;;;;;0.77;0.77;;;12.80;75.90;;;;;;5094421;28;20422;-66
2022/11/19 01:39:59;;;;;;;0.50;0.50;;;12.80;75.30;;;;;;5093794;28;20193;-65
2022/11/19 01:42:49;;;;;;;0.70;0.70;;;12.80;75.50;;;;;;5093668;28;20230;-65
2022/11/19 01:45:40;;;;;;;2.73;2.53;;;12.80;75.10;;;;;;5094042;28;20227;-67
2022/11/19 01:48:32;;;;;;;0.50;0.50;;;12.80;75.50;;;;;;5093975;28;20925;-66
2022/11/19 01:51:25;;;;;;;15.20;2.80;;;12.80;75.70;;;;;;5094090;28;20200;-66
2022/11/19 01:54:20;;;;;;;0.60;0.60;;;12.80;75.50;;;;;;5093740;28;20216;-66
2022/11/19 01:57:12;;;;;;;0.40;0.40;;;12.80;75.70;;;;;;5093937;28;20499;-66
2022/11/19 02:00:01;;;;;;;0.40;0.40;;;12.70;75.80;;;;;;5093112;28;20195;-66
2022/11/19 02:02:49;;;;;;;3.80;2.10;;;12.60;76.10;;;;;;5094123;28;20221;-66
2022/11/19 02:05:40;;;;;;;1.33;1.33;;;12.70;76.50;;;;;;5093082;28;20450;-65
2022/11/19 02:08:49;;;;;;;0.50;0.50;;;12.70;76.60;;;;;;5094166;28;20200;-67
2022/11/19 02:12:19;;;;;;;0.40;0.40;;;12.70;77.10;;;;;;5093004;28;20414;-65
2022/11/19 02:15:19;;;;;;;0.50;0.50;;;12.60;75.80;;;;;;5085295;28;20845;-65
2022/11/19 02:18:30;;;;;;;1.70;1.60;;;12.60;74.80;;;;;;5092670;28;20206;-65
2022/11/19 02:21:28;;;;;;;0.50;0.50;;;12.60;75.50;;;;;;5092562;28;20505;-66
2022/11/19 02:24:30;;;;;;;0.47;0.47;;;12.50;76.30;;;;;;5093362;28;20220;-65
2022/11/19 02:27:55;;;;;;;2.77;2.57;;;12.50;76.00;;;;;;5093687;28;20274;-66
2022/11/19 02:30:49;;;;;;;0.40;0.40;;;12.50;76.30;;;;;;5093290;28;20571;-66
2022/11/19 02:33:42;;;;;;;0.40;0.40;;;12.50;76.50;;;;;;5093607;28;20505;-66
2022/11/19 02:36:37;;;;;;;0.50;0.50;;;12.50;77.50;;;;;;5091439;28;20966;-66
2022/11/19 02:39:35;;;;;;;0.50;0.50;;;12.50;76.90;;;;;;5091366;28;20962;-66
2022/11/19 02:42:28;;;;;;;1.50;1.37;;;12.70;79.20;;;;;;5092598;28;20599;-66
2022/11/19 02:45:22;;;;;;;0.40;0.40;;;13.00;79.40;;;;;;5092380;28;20456;-66
2022/11/19 02:48:15;;;;;;;0.40;0.40;;;13.10;78.40;;;;;;5092213;28;20619;-66
2022/11/19 02:51:05;;;;;;;0.40;0.40;;;13.30;78.40;;;;;;5093246;28;20441;-67
2022/11/19 02:53:54;;;;;;;0.40;0.40;;;13.40;77.20;;;;;;5093051;28;20447;-65
2022/11/19 02:56:51;;;;;;;0.40;0.40;;;13.40;76.20;;;;;;5093014;28;20232;-66
2022/11/19 03:06:02;;;;;;;0.40;0.40;;;13.40;74.50;;;;;;5092910;28;20878;-65
2022/11/19 03:08:50;;;;;;;0.40;0.40;;;13.40;75.90;;;;;;5093361;28;20920;-65
2022/11/19 03:11:38;;;;;;;4.23;3.90;;;13.40;75.40;;;;;;5092955;28;20199;-67
2022/11/19 03:17:53;;;;;;;0.50;0.50;;;13.30;74.70;;;;;;5092066;28;20214;-66
2022/11/19 03:20:46;;;;;;;0.40;0.40;;;13.30;73.90;;;;;;5092309;28;20329;-65
2022/11/19 03:23:40;;;;;;;0.40;0.40;;;13.20;73.40;;;;;;5091936;28;20226;-66
2022/11/19 03:26:31;;;;;;;0.70;0.70;;;13.10;73.40;;;;;;5090924;28;20213;-65
2022/11/19 03:29:22;;;;;;;0.40;0.40;;;13.10;75.40;;;;;;5091665;28;20333;-65
2022/11/19 03:32:14;;;;;;;0.50;0.50;;;13.10;74.70;;;;;;5091291;28;20199;-66
2022/11/19 03:35:07;;;;;;;0.40;0.40;;;13.00;74.50;;;;;;5091485;28;20443;-65
2022/11/19 03:37:59;;;;;;;0.40;0.40;;;13.00;74.20;;;;;;5092472;28;20200;-66
2022/11/19 03:40:50;;;;;;;0.50;0.50;;;12.90;74.10;;;;;;5091016;28;20203;-65
2022/11/19 03:43:41;;;;;;;1.50;1.50;;;12.80;75.10;;;;;;5091486;28;20454;-65
2022/11/19 03:46:31;;;;;;;0.40;0.40;;;12.60;74.30;;;;;;5091497;28;20192;-65
2022/11/19 03:49:24;;;;;;;0.50;0.50;;;12.70;75.10;;;;;;5090434;28;20196;-65
2022/11/19 03:52:14;;;;;;;2.23;2.13;;;12.70;75.30;;;;;;5092207;28;20686;-65
2022/11/19 03:55:03;;;;;;;0.40;0.40;;;12.70;74.80;;;;;;5091500;28;20962;-65
2022/11/19 03:57:52;;;;;;;0.40;0.40;;;12.60;75.10;;;;;;5091262;28;20580;-66
2022/11/19 04:00:40;;;;;;;0.40;0.40;;;12.60;74.70;;;;;;5091979;28;20579;-65
2022/11/19 04:03:28;;;;;;;0.60;0.60;;;12.50;75.10;;;;;;5091500;28;20292;-66
2022/11/19 04:06:16;;;;;;;0.50;0.50;;;12.50;75.50;;;;;;5092061;28;20330;-65
2022/11/19 04:09:04;;;;;;;0.40;0.40;;;12.50;75.30;;;;;;5091487;28;21014;-64
2022/11/19 04:11:52;;;;;;;0.40;0.40;;;12.50;75.00;;;;;;5090766;28;20423;-66
2022/11/19 04:14:40;;;;;;;0.40;0.40;;;12.50;74.60;;;;;;5091722;28;20441;-67
2022/11/19 04:17:28;;;;;;;0.40;0.40;;;12.50;75.40;;;;;;5092412;28;20544;-66
2022/11/19 04:20:16;;;;;;;0.90;0.90;;;12.50;75.60;;;;;;5090639;28;20421;-66
2022/11/19 04:23:04;;;;;;;0.40;0.40;;;12.50;76.80;;;;;;5090824;28;20465;-67
2022/11/19 04:25:52;;;;;;;0.40;0.40;;;12.70;78.40;;;;;;5091886;28;20456;-66
2022/11/19 04:28:41;;;;;;;0.40;0.40;;;12.80;78.20;;;;;;5091914;28;20275;-66
2022/11/19 04:31:30;;;;;;;0.50;0.50;;;13.00;77.80;;;;;;5090444;28;20196;-66
2022/11/19 04:34:18;;;;;;;0.40;0.40;;;13.20;77.60;;;;;;5091476;28;20217;-66
2022/11/19 04:37:06;;;;;;;0.50;0.50;;;13.30;77.10;;;;;;5091947;28;20202;-67
2022/11/19 04:39:54;;;;;;;0.40;0.40;;;13.30;74.60;;;;;;5092728;28;20200;-66
2022/11/19 04:42:43;;;;;;;0.40;0.40;;;13.40;75.10;;;;;;5095109;28;20292;-66
2022/11/19 04:45:31;;;;;;;0.40;0.40;;;13.30;74.80;;;;;;5106265;22;20246;-62
2022/11/19 04:48:20;;;;;;;0.47;0.47;;;13.30;74.10;;;;;;5074674;28;20203;-62
2022/11/19 04:51:08;;;;;;;0.40;0.40;;;13.40;74.70;;;;;;5074429;28;20578;-62
2022/11/19 04:53:56;;;;;;;0.40;0.40;;;13.30;74.60;;;;;;5074270;28;20306;-62
2022/11/19 04:56:44;;;;;;;0.53;0.53;;;13.30;74.10;;;;;;5054516;28;20301;-62
2022/11/19 04:59:32;;;;;;;0.40;0.40;;;13.20;74.90;;;;;;5053746;28;20515;-62
2022/11/19 05:02:20;;;;;;;0.50;0.50;;;13.20;74.50;;;;;;5054560;28;20230;-62
2022/11/19 05:05:09;;;;;;;0.40;0.40;;;13.20;74.20;;;;;;5054060;28;20209;-62
2022/11/19 05:07:57;;;;;;;0.40;0.40;;;13.10;73.70;;;;;;5054413;28;20205;-62
2022/11/19 05:10:46;;;;;;;0.40;0.40;;;13.10;74.00;;;;;;5054773;28;20209;-62
2022/11/19 05:13:34;;;;;;;0.40;0.40;;;13.00;73.40;;;;;;5054115;28;20213;-62
2022/11/19 05:16:22;;;;;;;0.40;0.40;;;13.00;74.30;;;;;;5054331;28;20291;-62
2022/11/19 05:19:10;;;;;;;8.43;3.30;;;13.00;74.80;;;;;;5054408;28;20331;-62
2022/11/19 05:21:59;;;;;;;0.40;0.40;;;13.00;74.80;;;;;;5054299;28;20313;-62
2022/11/19 05:24:47;;;;;;;1.03;1.03;;;12.90;73.90;;;;;;5053581;28;20274;-61
2022/11/19 05:27:35;;;;;;;0.40;0.40;;;12.90;74.00;;;;;;5054594;28;20414;-62
2022/11/19 05:30:23;;;;;;;1.20;1.17;;;12.90;73.10;;;;;;5053844;28;20328;-62
2022/11/19 05:33:11;;;;;;;0.40;0.40;;;12.80;74.00;;;;;;5054983;28;20198;-61
2022/11/19 05:35:59;;;;;;;1.33;1.23;;;12.80;73.40;;;;;;5054139;28;20217;-62
2022/11/19 05:38:48;;;;;;;0.47;0.47;;;12.80;74.50;;;;;;5054015;28;20380;-62
2022/11/19 05:41:36;;;;;;;0.40;0.40;;;12.80;73.70;;;;;;5054059;28;20209;-62
2022/11/19 05:44:24;;;;;;;0.60;0.60;;;12.70;74.30;;;;;;5054029;28;20621;-62
2022/11/19 05:47:14;;;;;;;0.40;0.40;;;12.60;74.00;;;;;;5057883;28;21053;-62
2022/11/19 05:50:02;;;;;;;0.40;0.40;;;12.60;74.20;;;;;;5056460;28;20793;-62
2022/11/19 05:52:50;;;;;;;0.40;0.40;;;12.60;74.50;;;;;;5056961;28;20423;-62
2022/11/19 05:55:40;;;;;;;0.40;0.40;;;12.60;74.90;;;;;;5054870;28;20436;-62
2022/11/19 05:58:28;;;;;;;0.70;0.70;;;12.50;74.60;;;;;;5053369;28;20202;-62
2022/11/19 06:01:16;;;;;;;2.40;2.20;;;12.50;74.90;;;;;;5053707;28;20276;-61
2022/11/19 06:04:04;;;;;;;0.50;0.50;;;12.40;75.50;;;;;;5053293;28;20483;-61
2022/11/19 06:06:52;;;;;;;0.40;0.40;;;12.40;74.80;;;;;;5054531;28;20458;-61
2022/11/19 06:09:40;;;;;;;0.50;0.50;;;12.40;75.80;;;;;;5052946;28;20276;-62
2022/11/19 06:12:29;;;;;;;0.40;0.40;;;12.50;78.00;;;;;;5053789;28;20284;-62
2022/11/19 06:15:17;;;;;;;0.40;0.40;;;12.70;78.00;;;;;;5053008;28;21043;-62
2022/11/19 06:18:05;;;;;;;0.40;0.40;;;13.00;78.00;;;;;;5053947;28;20433;-62
2022/11/19 06:20:53;;;;;;;0.40;0.40;;;13.20;77.40;;;;;;5053720;28;20286;-62
2022/11/19 06:23:41;;;;;;;0.40;0.40;;;13.40;77.00;;;;;;5053036;28;20213;-62
2022/11/19 06:26:30;;;;;;;1.37;1.27;;;13.50;76.20;;;;;;5053955;28;20267;-62
2022/11/19 06:29:20;;;;;;;0.40;0.40;;;13.70;76.30;;;;;;5052526;28;20219;-62
2022/11/19 06:32:08;;;;;;;0.40;0.40;;;13.80;75.80;;;;;;5053629;28;20197;-62
2022/11/19 06:34:56;;;;;;;0.40;0.40;;;13.80;75.30;;;;;;5053021;28;20214;-62
2022/11/19 06:37:44;;;;;;;0.40;0.40;;;13.90;75.00;;;;;;5053464;28;20280;-62
2022/11/19 06:40:32;;;;;;;0.87;0.87;;;13.90;74.90;;;;;;5052385;28;20639;-62
2022/11/19 06:43:20;;;;;;;0.60;0.60;;;13.90;74.50;;;;;;5053008;28;20316;-62
2022/11/19 06:46:10;;;;;;;0.40;0.40;;;13.80;73.60;;;;;;5053207;28;20222;-62
2022/11/19 06:48:58;;;;;;;0.40;0.40;;;13.80;73.70;;;;;;5052578;28;20665;-62
2022/11/19 06:51:46;;;;;;;0.40;0.40;;;13.80;73.50;;;;;;5053352;28;20237;-62
2022/11/19 06:54:34;;;;;;;0.40;0.40;;;13.70;73.50;;;;;;5053646;28;20304;-62
2022/11/19 06:57:27;;;;;;;0.40;0.40;;;13.60;73.70;;;;;;5053343;28;20263;-62
2022/11/19 07:00:16;;;;;;;0.40;0.40;;;13.60;72.80;;;;;;5053339;28;20677;-62
2022/11/19 07:03:05;;;;;;;0.40;0.40;;;13.50;72.90;;;;;;5051902;28;20693;-62
2022/11/19 07:05:57;;;;;;;2.93;2.73;;;14.60;75.00;;;;;;5053159;28;20304;-62
2022/11/19 07:08:45;;;;;;;0.40;0.40;;;13.30;72.80;;;;;;5052099;28;20572;-64
2022/11/19 07:11:34;;;;;;;0.40;0.40;;;13.10;75.40;;;;;;5052838;28;20247;-62
2022/11/19 07:14:22;;;;;;;0.40;0.40;;;13.20;73.50;;;;;;5052523;28;20251;-61
2022/11/19 07:17:10;;;;;;;0.40;0.40;;;13.10;73.50;;;;;;5052541;28;20387;-62
2022/11/19 07:20:00;;;;;;;0.40;0.40;;;13.10;74.40;;;;;;5052107;28;20204;-62
2022/11/19 07:22:48;;;;;;;0.60;0.60;;;13.00;73.90;;;;;;5052801;28;20646;-62
2022/11/19 07:25:36;;;;;;;0.50;0.50;;;13.00;73.90;;;;;;5052327;28;20468;-62
2022/11/19 07:28:24;;;;;;;0.40;0.40;;;12.90;74.20;;;;;;5052502;28;20701;-62
2022/11/19 07:31:12;;;;;;;0.40;0.40;;;12.90;74.80;;;;;;5052459;28;20203;-62
2022/11/19 07:34:00;;;;;;;0.60;0.60;;;12.90;74.20;;;;;;5051842;28;20200;-62
2022/11/19 07:36:50;;;;;;;0.40;0.40;;;12.80;74.00;;;;;;5053909;28;20207;-63
2022/11/19 07:39:38;;;;;;;0.40;0.40;;;12.90;74.90;;;;;;5051465;28;20577;-62
2022/11/19 07:45:40;;;;;;;0.40;0.40;;;12.80;75.00;;;;;;5024888;28;20229;-61
2022/11/19 07:48:29;;;;;;;3.27;3.07;;;12.80;74.50;;;;;;5053156;28;20215;-62
2022/11/19 07:51:17;;;;;;;0.50;0.50;;;12.80;73.80;;;;;;5053367;28;20288;-61
2022/11/19 07:54:08;;;;;;;0.40;0.40;;;12.70;74.30;;;;;;5054488;28;20201;-61
2022/11/19 07:56:56;;;;;;;0.40;0.40;;;12.30;74.50;;;;;;5065672;28;20288;-62
2022/11/19 07:59:44;;;;;;;0.40;0.40;;;12.70;74.20;;;;;;5069543;28;20261;-61
2022/11/19 08:02:32;;;;;;;0.40;0.40;;;12.60;74.40;;;;;;5069903;28;20272;-62
2022/11/19 08:05:20;;;;;;;0.40;0.40;;;12.60;74.60;;;;;;5068487;28;20225;-62
2022/11/19 08:08:08;;;;;;;0.40;0.40;;;12.60;74.40;;;;;;5057465;28;20424;-61
2022/11/19 08:10:57;;;;;;;0.40;0.40;;;12.60;76.90;;;;;;5053960;28;20657;-64
2022/11/19 08:13:45;;;;;;;0.70;0.70;;;12.70;77.50;;;;;;5051557;28;20203;-64
2022/11/19 08:19:39;;;;;;;0.50;0.50;;;13.10;77.00;;;;;;5056127;28;20229;-61
2022/11/19 08:22:28;;;;;;;0.40;0.40;;;13.30;77.00;;;;;;5055680;28;20674;-61
2022/11/19 08:25:16;;;;;;;0.40;0.40;;;13.40;76.60;;;;;;5056310;28;20471;-61
2022/11/19 08:28:05;;;;;;;0.40;0.40;;;13.40;76.10;;;;;;5055696;28;20201;-61
2022/11/19 08:30:54;;;;;;;2.70;2.60;;;13.40;75.00;;;;;;5054974;28;20255;-62
2022/11/19 08:33:42;;;;;;;0.40;0.40;;;13.40;73.80;;;;;;5055576;28;20675;-62
2022/11/19 08:36:30;;;;;;;0.40;0.40;;;13.40;73.90;;;;;;5055226;28;20197;-62
2022/11/19 08:39:18;;;;;;;0.50;0.50;;;13.40;74.20;;;;;;5054475;28;20201;-62
2022/11/19 08:45:13;;;;;;;0.50;0.50;;;13.40;74.90;;;;;;5054989;28;20303;-61
2022/11/19 08:48:09;;;;;;;0.40;0.40;;;13.30;74.60;;;;;;5054968;28;20197;-62
2022/11/19 08:50:57;;;;;;;0.40;0.40;;;13.30;74.50;;;;;;5053938;28;20573;-62
2022/11/19 08:53:45;;;;;;;0.40;0.40;;;13.30;73.50;;;;;;5054587;28;20208;-62
2022/11/19 08:56:33;;;;;;;0.60;0.60;;;13.30;73.30;;;;;;5055230;28;20194;-62
2022/11/19 08:59:21;;;;;;;1.57;1.53;;;13.20;74.70;;;;;;5054438;28;20233;-62
2022/11/19 09:02:11;;;;;;;0.50;0.50;;;13.30;73.70;;;;;;5055319;28;20232;-62
2022/11/19 09:04:59;;;;;;;0.40;0.40;;;13.30;74.80;;;;;;5054313;28;20299;-62
2022/11/19 09:07:47;;;;;;;3.07;2.87;;;13.20;74.00;;;;;;5054726;28;20695;-62
2022/11/19 09:10:36;;;;;;;0.40;0.40;;;13.20;74.50;;;;;;5053801;28;20287;-62
2022/11/19 09:13:25;;;;;;;0.40;0.40;;;13.20;75.20;;;;;;5054658;28;20851;-62
2022/11/19 09:16:13;;;;;;;0.40;0.40;;;13.20;74.90;;;;;;5055205;28;20440;-62
2022/11/19 09:19:03;;;;;;;11.03;5.20;;;13.10;74.80;;;;;;5055831;28;20201;-62
2022/11/19 09:21:51;;;;;;;0.40;0.40;;;13.00;74.40;;;;;;5056005;28;20424;-62
2022/11/19 09:24:39;;;;;;;0.40;0.40;;;13.10;75.20;;;;;;5056443;28;20310;-62
2022/11/19 09:27:27;;;;;;;0.40;0.40;;;13.00;75.10;;;;;;5056375;28;20285;-62
2022/11/19 09:30:15;;;;;;;0.40;0.40;;;13.00;75.30;;;;;;5055162;28;20280;-62
2022/11/19 09:33:03;;;;;;;0.40;0.40;;;13.00;75.50;;;;;;5055788;28;20194;-62
2022/11/19 09:35:52;;;;;;;0.40;0.40;;;12.90;75.20;;;;;;5055379;28;20300;-62
2022/11/19 09:38:41;;;;;;;0.40;0.40;;;12.90;75.50;;;;;;5061087;28;20227;-62
2022/11/19 09:41:42;;;;;;;2.00;1.90;;;12.90;74.90;;;;;;5066629;28;20211;-62
2022/11/19 09:44:45;;;;;;;0.70;0.70;;;12.80;76.00;;;;;;5065989;28;20306;-62
2022/11/19 09:47:47;;;;;;;0.40;0.40;;;12.80;74.60;;;;;;5066389;28;20614;-62
2022/11/19 09:50:44;;;;;;;0.40;0.40;;;12.80;74.40;;;;;;5061140;28;20255;-62
2022/11/19 09:53:45;;;;;;;6.80;3.33;;;12.70;76.00;;;;;;5067147;28;20650;-62
2022/11/19 09:56:36;;;;;;;0.40;0.40;;;12.80;75.80;;;;;;5066854;28;20234;-62
2022/11/19 09:59:27;;;;;;;0.40;0.40;;;12.80;76.90;;;;;;5061677;28;20996;-62
2022/11/19 10:02:17;;;;;;;0.70;0.70;;;12.90;77.20;;;;;;5059113;28;20232;-61
2022/11/19 10:05:06;;;;;;;0.60;0.60;;;13.00;75.50;;;;;;5062528;28;20285;-62
2022/11/19 10:08:08;;;;;;;0.40;0.40;;;13.10;75.90;;;;;;5067671;28;20197;-62
2022/11/19 10:11:13;;;;;;;0.40;0.40;;;13.10;75.40;;;;;;5053327;28;20669;-62
2022/11/19 10:14:10;;;;;;;0.50;0.50;;;13.20;75.60;;;;;;5053458;28;20278;-62
2022/11/19 10:17:04;;;;;;;0.40;0.40;;;13.20;75.10;;;;;;5062921;28;20239;-62
2022/11/19 10:20:08;;;;;;;0.40;0.40;;;13.30;74.50;;;;;;5065366;28;20261;-62
2022/11/19 10:23:00;;;;;;;0.40;0.40;;;13.30;75.60;;;;;;5058384;28;20260;-62
2022/11/19 10:25:53;;;;;;;0.40;0.40;;;13.40;75.80;;;;;;5054325;28;20284;-62
2022/11/19 10:28:48;;;;;;;0.40;0.40;;;13.40;75.60;;;;;;5054086;28;20197;-62
2022/11/19 10:31:38;;;;;;;0.40;0.40;;;13.40;75.20;;;;;;5054172;28;20237;-62
2022/11/19 10:34:29;;;;;;;0.40;0.40;;;13.40;75.50;;;;;;5053484;28;20635;-62
2022/11/19 10:37:22;;;;;;;0.40;0.40;;;13.30;74.80;;;;;;5053395;28;20197;-61
2022/11/19 10:40:14;;;;;;;0.50;0.50;;;13.30;75.90;;;;;;5052836;28;20605;-62
2022/11/19 10:43:14;;;;;;;0.40;0.40;;;13.30;76.10;;;;;;5053697;28;20239;-62
2022/11/19 10:46:12;;;;;;;0.70;0.70;;;13.40;75.50;;;;;;5090344;22;20231;-67
2022/11/19 10:49:01;;;;;;;0.40;0.40;;;13.30;75.60;;;;;;5072642;28;20196;-66
2022/11/19 10:51:49;;;;;;;0.40;0.40;;;13.30;75.60;;;;;;5072408;28;20206;-66
2022/11/19 10:54:38;;;;;;;0.40;0.40;;;13.20;87.00;;;;;;5072637;28;20291;-66
2022/11/19 10:57:30;;;;;;;0.40;0.40;;;13.30;75.40;;;;;;5072654;28;20203;-66
2022/11/19 11:00:18;;;;;;;0.40;0.40;;;13.30;75.50;;;;;;5072467;28;20196;-65
2022/11/19 11:03:18;;;;;;;0.40;0.40;;;13.20;76.00;;;;;;5072390;28;20203;-66
2022/11/19 11:06:08;;;;;;;0.40;0.40;;;13.20;75.50;;;;;;5072350;28;20570;-66
2022/11/19 11:08:57;;;;;;;0.40;0.40;;;;;;;;;;5071464;28;20566;-68
2022/11/19 11:14:52;;;;;;;0.40;0.40;;;13.20;76.10;;;;;;5072006;28;20775;-69
2022/11/19 11:17:41;;;;;;;0.40;0.40;;;13.20;76.40;;;;;;5071554;28;20201;-67
2022/11/19 11:20:32;;;;;;;0.40;0.40;;;13.20;76.30;;;;;;5072431;28;20573;-68
2022/11/19 11:23:23;;;;;;;0.40;0.40;;;13.20;75.70;;;;;;5071360;28;20200;-67
2022/11/19 11:26:17;;;;;;;0.40;0.40;;;13.20;75.30;;;;;;5071846;28;20243;-66
2022/11/19 11:29:23;;;;;;;0.40;0.40;;;13.20;74.70;;;;;;5073000;28;20695;-67
2022/11/19 11:32:27;;;;;;;0.40;0.40;;;13.30;75.30;;;;;;5071177;28;20666;-67
2022/11/19 11:35:30;;;;;;;2.63;2.43;;;13.30;74.30;;;;;;5073030;28;20228;-67
2022/11/19 11:38:21;;;;;;;0.40;0.40;;;13.30;74.10;;;;;;5071208;28;20275;-68
2022/11/19 11:41:12;;;;;;;0.40;0.40;;;13.40;74.00;;;;;;5071378;28;20459;-67
2022/11/19 11:44:23;;;;;;;0.50;0.50;;;13.40;74.80;;;;;;5072309;28;20200;-66
2022/11/19 11:47:14;;;;;;;0.40;0.40;;;13.50;75.00;;;;;;5072542;28;20224;-66
2022/11/19 11:50:07;;;;;;;0.40;0.40;;;13.50;75.20;;;;;;5072450;28;20201;-66
2022/11/19 11:52:57;;;;;;;0.40;0.40;;;13.50;74.40;;;;;;5072229;28;20192;-66
2022/11/19 11:55:57;;;;;;;0.40;0.40;;;13.50;75.00;;;;;;5072135;28;20453;-66
2022/11/19 11:58:45;;;;;;;0.40;0.40;;;13.50;74.70;;;;;;5071145;28;20673;-66
2022/11/19 12:01:33;;;;;;;0.40;0.40;;;13.40;74.80;;;;;;5072009;28;20277;-66
2022/11/19 12:04:22;;;;;;;0.40;0.40;;;;;;;;;;5071190;28;20276;-66
2022/11/19 12:07:24;;;;;;;0.40;0.40;;;13.40;73.00;;;;;;5071452;28;20602;-66
2022/11/19 12:10:25;;;;;;;0.40;0.40;;;13.40;75.10;;;;;;5070643;28;20196;-67
2022/11/19 12:13:40;;;;;;;1.43;1.37;;;13.40;74.70;;;;;;5070981;28;20328;-65
2022/11/19 12:16:41;;;;;;;2.30;2.17;;;13.30;75.90;;;;;;5071174;28;20235;-67
2022/11/19 12:19:46;;;;;;;0.40;0.40;;;13.30;76.00;;;;;;5070270;28;20703;-65
2022/11/19 12:22:45;;;;;;;0.40;0.40;;;13.30;75.70;;;;;;5072492;28;20197;-68
2022/11/19 12:25:39;;;;;;;0.40;0.40;;;13.30;75.50;;;;;;5071252;28;20303;-66
2022/11/19 12:28:40;;;;;;;0.60;0.60;;;13.30;75.50;;;;;;5070892;28;20819;-66
2022/11/19 12:31:44;;;;;;;0.70;0.70;;;13.30;76.00;;;;;;5071405;28;20200;-67
2022/11/19 12:35:02;;;;;;;0.40;0.40;;;13.20;76.20;;;;;;5070507;28;20201;-67
2022/11/19 12:38:05;;;;;;;0.40;0.40;;;13.20;75.60;;;;;;5072004;28;20607;-67
2022/11/19 12:41:02;;;;;;;0.40;0.40;;;13.20;76.10;;;;;;5071135;28;20431;-67
2022/11/19 12:43:56;;;;;;;0.40;0.40;;;13.30;75.80;;;;;;5071707;28;20686;-66
2022/11/19 12:46:51;;;;;;;0.60;0.60;;;13.20;75.40;;;;;;5071062;28;20224;-67
2022/11/19 12:49:57;;;;;;;0.40;0.40;;;13.30;76.10;;;;;;5070631;28;20223;-66
2022/11/19 12:53:00;;;;;;;0.40;0.40;;;13.30;75.60;;;;;;5070613;28;20204;-66
2022/11/19 12:56:01;;;;;;;0.40;0.40;;;13.40;74.70;;;;;;5071041;28;20234;-66
2022/11/19 12:59:02;;;;;;;0.50;0.50;;;13.40;74.40;;;;;;5070387;28;20200;-67
2022/11/19 13:01:53;;;;;;;0.40;0.40;;;13.40;74.30;;;;;;5073850;28;20204;-66
2022/11/19 13:04:46;;;;;;;0.40;0.40;;;13.50;75.80;;;;;;5075654;28;20890;-67
2022/11/19 13:07:39;;;;;;;0.40;0.40;;;13.60;76.50;;;;;;5074391;28;20220;-67
2022/11/19 13:10:35;;;;;;;0.40;0.40;;;13.60;76.20;;;;;;5074289;28;20423;-66
2022/11/19 13:13:27;;;;;;;0.40;0.40;;;13.60;75.60;;;;;;5073997;28;20196;-67
2022/11/19 13:16:19;;;;;;;0.40;0.40;;;13.60;76.00;;;;;;5074419;28;20665;-67
2022/11/19 13:19:18;;;;;;;0.40;0.40;;;13.70;75.40;;;;;;5073823;28;20195;-67
2022/11/19 13:22:12;;;;;;;0.40;0.40;;;13.70;75.20;;;;;;5075457;28;20596;-67
2022/11/19 13:25:06;;;;;;;0.40;0.40;;;13.60;75.50;;;;;;5074465;28;20466;-66
2022/11/19 13:27:57;;;;;;;0.40;0.40;;;13.60;75.30;;;;;;5077293;28;20680;-66
2022/11/19 13:30:50;;;;;;;0.40;0.40;;;13.60;75.10;;;;;;5079214;28;20262;-68
2022/11/19 13:33:45;;;;;;;0.40;0.40;;;13.50;76.00;;;;;;5080119;28;20304;-66
2022/11/19 13:36:37;;;;;;;0.40;0.40;;;13.50;75.80;;;;;;5077090;28;20220;-65
2022/11/19 13:39:32;;;;;;;0.40;0.40;;;13.50;75.50;;;;;;5069497;28;20210;-66
2022/11/19 13:45:28;;;;;;;0.40;0.40;;;13.40;76.00;;;;;;5076217;28;20302;-66
2022/11/19 13:48:23;;;;;;;0.40;0.40;;;13.40;75.70;;;;;;5094774;28;20738;-67
2022/11/19 13:51:22;;;;;;;0.40;0.40;;;13.40;75.80;;;;;;5093178;28;20200;-65
2022/11/19 13:54:22;;;;;;;0.40;0.40;;;13.40;75.90;;;;;;5094475;28;20760;-66
2022/11/19 13:57:25;;;;;;;0.50;0.50;;;13.40;76.10;;;;;;5094590;28;20309;-67
2022/11/19 14:00:23;;;;;;;0.40;0.40;;;13.30;75.80;;;;;;5053765;28;20209;-66
2022/11/19 14:03:27;;;;;;;0.40;0.40;;;13.30;76.10;;;;;;5053449;28;20423;-68
2022/11/19 14:06:41;;;;;;;0.40;0.40;;;13.30;76.40;;;;;;5053995;28;20235;-67
2022/11/19 14:09:36;;;;;;;0.50;0.50;;;13.30;76.20;;;;;;5054770;28;20233;-67
2022/11/19 14:12:44;;;;;;;0.40;0.40;;;13.30;76.20;;;;;;5052152;28;20255;-67
2022/11/19 14:28:52;;;;;;;0.40;0.40;;;13.60;76.80;;;;;;5053056;28;20774;-68
2022/11/19 14:32:13;;;;;;;0.40;0.40;;;13.60;76.70;;;;;;5054127;28;20197;-68
2022/11/19 14:35:31;;;;;;;0.40;0.40;;;13.60;76.50;;;;;;5074272;28;20341;-67
2022/11/19 14:38:38;;;;;;;0.40;0.40;;;13.60;77.00;;;;;;5093976;28;20793;-66
2022/11/19 14:41:33;;;;;;;0.40;0.40;;;13.60;77.00;;;;;;5093504;28;20279;-66
2022/11/19 14:44:34;;;;;;;0.40;0.40;;;13.60;75.90;;;;;;5093880;28;20231;-66
2022/11/19 14:47:31;;;;;;;0.40;0.40;;;13.60;76.30;;;;;;5093522;28;20345;-66
2022/11/19 14:50:25;;;;;;;0.40;0.40;;;13.60;76.50;;;;;;5093343;28;20427;-66
2022/11/19 14:53:19;;;;;;;0.40;0.40;;;13.50;76.10;;;;;;5093086;28;20218;-67
2022/11/19 14:56:12;;;;;;;0.40;0.40;;;13.50;75.80;;;;;;5092841;28;20227;-66
2022/11/19 14:59:07;;;;;;;0.40;0.40;;;13.40;75.80;;;;;;5093227;28;20275;-66
2022/11/19 15:02:00;;;;;;;0.40;0.40;;;13.40;76.50;;;;;;5092272;28;20329;-66
2022/11/19 15:04:56;;;;;;;0.40;0.40;;;13.40;75.90;;;;;;5093785;28;20224;-66
2022/11/19 15:07:46;;;;;;;0.40;0.40;;;13.40;76.30;;;;;;5092086;28;20247;-67
2022/11/19 15:10:48;;;;;;;0.40;0.40;;;13.40;75.80;;;;;;5092689;28;20274;-66
2022/11/19 15:13:39;;;;;;;0.40;0.40;;;13.40;76.20;;;;;;5092139;28;20273;-66
2022/11/19 15:16:28;;;;;;;0.40;0.40;;;13.30;76.30;;;;;;5092336;28;20219;-67
2022/11/19 15:19:33;;;;;;;0.40;0.40;;;13.30;76.20;;;;;;5093535;28;20275;-67
2022/11/19 15:22:40;;;;;;;0.40;0.40;;;13.20;75.40;;;;;;5092945;28;20493;-67
2022/11/19 15:25:59;;;;;;;0.40;0.40;;;13.30;75.60;;;;;;5092154;28;20344;-67
2022/11/19 15:29:04;;;;;;;0.40;0.40;;;13.30;76.30;;;;;;5092812;28;20222;-68
2022/11/19 15:32:13;;;;;;;0.40;0.40;;;13.30;77.10;;;;;;5092756;28;20302;-68
2022/11/19 15:35:32;;;;;;;0.40;0.40;;;13.40;77.80;;;;;;5081228;28;20538;-67
2022/11/19 15:38:29;;;;;;;0.40;0.40;;;13.60;77.50;;;;;;5071962;28;20876;-67